Time;durP1;ratioP1;P1;durP2;ratioP2;P2;SDS_P1;SDS_P2;PMS_P1;PMS_P2;Temp;Humidity;BMP_temperature;BMP_pressure;BME280_temperature;BME280_humidity;BME280_pressure;Samples;Min_cycle;Max_cycle;Signal;HPM_P1;HPM_P2
2023/10/27 00:00:58;;;;;;;7.18;3.65;;;11.40;99.90;;;;;;5034490;28;20879;-92
2023/10/27 00:03:24;;;;;;;13.48;3.58;;;11.50;99.90;;;;;;5036348;28;20078;-92
2023/10/27 00:05:50;;;;;;;8.20;3.25;;;11.40;99.90;;;;;;5036281;28;20018;-91
2023/10/27 00:08:16;;;;;;;8.02;3.47;;;11.50;99.90;;;;;;5034642;28;20084;-91
2023/10/27 00:10:42;;;;;;;8.63;2.95;;;11.40;99.90;;;;;;5021054;28;20068;-93
2023/10/27 00:13:07;;;;;;;5.13;2.40;;;11.40;99.90;;;;;;5033045;28;20492;-91
2023/10/27 00:15:33;;;;;;;4.80;3.00;;;11.40;99.90;;;;;;5025693;28;20034;-93
2023/10/27 00:17:59;;;;;;;7.35;2.40;;;11.40;99.90;;;;;;5024025;28;20033;-92
2023/10/27 00:20:26;;;;;;;7.90;2.90;;;11.40;99.90;;;;;;5028298;28;20022;-93
2023/10/27 00:22:51;;;;;;;8.57;2.10;;;11.40;99.90;;;;;;5031571;28;20030;-92
2023/10/27 00:25:17;;;;;;;5.22;2.58;;;11.40;99.90;;;;;;5027307;28;20022;-91
2023/10/27 00:27:43;;;;;;;4.38;1.63;;;11.40;99.90;;;;;;5029648;28;20018;-90
2023/10/27 00:30:09;;;;;;;5.72;1.90;;;11.40;99.90;;;;;;5040376;28;20044;-91
2023/10/27 00:32:38;;;;;;;7.55;1.70;;;11.40;99.90;;;;;;5040122;28;20036;-93
2023/10/27 00:35:07;;;;;;;8.63;1.88;;;11.40;99.90;;;;;;5040628;28;20483;-94
2023/10/27 00:37:34;;;;;;;5.63;1.90;;;11.40;99.90;;;;;;5029036;28;20034;-91
2023/10/27 00:40:00;;;;;;;4.57;1.85;;;11.40;99.90;;;;;;5034614;28;20025;-93
2023/10/27 00:42:26;;;;;;;8.55;2.03;;;11.40;99.90;;;;;;5029923;28;20072;-92
2023/10/27 00:44:51;;;;;;;6.15;1.83;;;11.40;99.90;;;;;;5025647;28;20033;-92
2023/10/27 00:47:18;;;;;;;4.60;2.00;;;11.40;99.90;;;;;;5025808;28;20023;-93
2023/10/27 00:49:44;;;;;;;5.03;1.73;;;11.40;99.90;;;;;;5037721;28;20089;-93
2023/10/27 00:52:12;;;;;;;3.83;1.95;;;11.40;99.90;;;;;;5036631;28;20384;-93
2023/10/27 00:54:39;;;;;;;7.93;2.53;;;11.30;99.90;;;;;;5039686;28;20022;-93
2023/10/27 00:57:05;;;;;;;4.45;1.58;;;11.40;99.90;;;;;;5040003;28;20026;-93
2023/10/27 00:59:32;;;;;;;7.35;1.98;;;11.30;99.90;;;;;;5036222;28;20065;-92
2023/10/27 01:01:58;;;;;;;5.47;1.38;;;11.30;99.90;;;;;;5018685;28;20267;-92
2023/10/27 01:04:25;;;;;;;7.90;2.00;;;11.30;99.90;;;;;;5036720;28;20552;-93
2023/10/27 01:06:52;;;;;;;7.32;1.92;;;11.30;99.90;;;;;;5038059;28;20848;-93
2023/10/27 01:09:18;;;;;;;7.03;1.70;;;11.20;99.90;;;;;;5038669;28;20049;-92
2023/10/27 01:11:45;;;;;;;6.07;1.40;;;11.20;99.90;;;;;;5039373;28;20036;-92
2023/10/27 01:14:10;;;;;;;5.82;1.92;;;11.20;99.90;;;;;;5046869;28;20048;-92
2023/10/27 01:16:36;;;;;;;5.25;2.03;;;11.20;99.90;;;;;;5056410;28;20041;-92
2023/10/27 01:19:02;;;;;;;7.97;1.92;;;11.20;99.90;;;;;;5022507;28;20156;-91
2023/10/27 01:21:28;;;;;;;5.75;1.65;;;11.20;99.90;;;;;;5026643;28;20141;-93
2023/10/27 01:23:53;;;;;;;6.65;1.92;;;11.20;99.90;;;;;;5039639;28;20048;-93
2023/10/27 01:26:19;;;;;;;9.75;3.05;;;11.20;99.90;;;;;;5055235;28;20032;-92
2023/10/27 01:28:45;;;;;;;5.65;1.90;;;11.20;99.90;;;;;;5038628;28;20033;-90
2023/10/27 01:31:10;;;;;;;3.65;1.42;;;11.20;99.90;;;;;;5031003;28;20035;-92
2023/10/27 01:33:37;;;;;;;5.47;1.33;;;11.10;99.90;;;;;;5040044;28;20095;-92
2023/10/27 01:36:03;;;;;;;8.23;2.28;;;11.10;99.90;;;;;;5039025;28;20018;-92
2023/10/27 01:38:29;;;;;;;4.15;1.45;;;11.10;99.90;;;;;;5031355;28;20053;-91
2023/10/27 01:40:54;;;;;;;8.75;1.92;;;11.10;99.90;;;;;;5038981;28;20123;-91
2023/10/27 01:43:20;;;;;;;3.47;2.13;;;11.10;99.90;;;;;;5037526;28;20026;-92
2023/10/27 01:45:45;;;;;;;9.77;2.00;;;11.10;99.90;;;;;;5030456;28;20033;-92
2023/10/27 01:48:11;;;;;;;5.65;1.73;;;11.00;99.90;;;;;;5038819;28;20035;-93
2023/10/27 01:50:37;;;;;;;4.75;2.08;;;11.10;99.90;;;;;;5039242;28;20030;-91
2023/10/27 01:53:02;;;;;;;4.70;2.47;;;11.00;99.90;;;;;;5040862;28;20021;-92
2023/10/27 01:55:29;;;;;;;4.10;1.75;;;11.00;99.90;;;;;;5039796;28;20052;-91
2023/10/27 01:57:55;;;;;;;5.75;2.00;;;11.00;99.90;;;;;;5035437;28;20107;-92
2023/10/27 02:00:20;;;;;;;5.30;1.58;;;11.00;99.90;;;;;;5036581;28;20013;-93
2023/10/27 02:02:46;;;;;;;6.38;3.17;;;11.00;99.90;;;;;;5051069;28;20645;-92
2023/10/27 02:05:13;;;;;;;5.50;1.73;;;10.90;99.90;;;;;;5036957;28;20025;-91
2023/10/27 02:07:38;;;;;;;5.25;2.55;;;10.90;99.90;;;;;;5036960;28;20026;-91
2023/10/27 02:10:05;;;;;;;4.50;1.67;;;10.90;99.90;;;;;;5035558;28;20029;-90
2023/10/27 02:12:31;;;;;;;4.03;2.03;;;10.90;99.90;;;;;;5038320;28;20149;-92
2023/10/27 02:14:56;;;;;;;5.72;2.33;;;11.00;99.90;;;;;;5054799;28;20099;-93
2023/10/27 02:17:22;;;;;;;6.70;1.25;;;10.90;99.90;;;;;;5054814;28;20439;-91
2023/10/27 02:19:48;;;;;;;4.90;2.50;;;10.90;99.90;;;;;;5031654;28;20034;-90
2023/10/27 02:22:14;;;;;;;4.95;1.95;;;10.90;99.90;;;;;;5035718;28;20056;-92
2023/10/27 02:24:43;;;;;;;3.97;1.95;;;10.90;99.90;;;;;;5039147;28;20105;-92
2023/10/27 02:27:08;;;;;;;4.72;1.80;;;10.90;99.90;;;;;;5028683;28;20030;-90
2023/10/27 02:29:34;;;;;;;7.07;1.67;;;10.90;99.90;;;;;;5025952;28;20114;-91
2023/10/27 02:32:00;;;;;;;3.58;1.70;;;10.90;99.90;;;;;;5037725;28;20031;-92
2023/10/27 02:34:26;;;;;;;5.32;1.67;;;10.90;99.90;;;;;;5029922;28;20056;-93
2023/10/27 02:36:51;;;;;;;5.68;1.67;;;10.90;99.90;;;;;;5031442;28;20403;-91
2023/10/27 02:39:17;;;;;;;6.15;1.95;;;10.80;99.90;;;;;;5018348;28;20038;-91
2023/10/27 02:41:42;;;;;;;6.05;1.60;;;10.80;99.90;;;;;;5037887;28;20025;-92
2023/10/27 02:44:12;;;;;;;5.32;1.42;;;10.80;99.90;;;;;;5037710;28;20492;-93
2023/10/27 02:46:38;;;;;;;3.95;1.83;;;10.80;99.90;;;;;;5036931;28;20100;-91
2023/10/27 02:49:04;;;;;;;6.93;2.47;;;10.80;99.90;;;;;;5035664;28;20101;-92
2023/10/27 02:51:29;;;;;;;5.38;2.00;;;10.80;99.90;;;;;;5032225;28;20029;-90
2023/10/27 02:53:55;;;;;;;3.97;1.63;;;10.80;99.90;;;;;;5052985;28;20415;-91
2023/10/27 02:56:22;;;;;;;5.35;1.25;;;10.80;99.90;;;;;;5052312;28;20052;-92
2023/10/27 02:58:47;;;;;;;9.07;2.33;;;10.70;99.90;;;;;;5038474;28;20559;-91
2023/10/27 03:01:16;;;;;;;6.80;1.77;;;10.80;99.90;;;;;;5054723;28;20114;-90
2023/10/27 03:03:43;;;;;;;5.38;2.00;;;10.80;99.90;;;;;;5026324;28;20052;-92
2023/10/27 03:06:10;;;;;;;6.88;2.33;;;10.80;99.90;;;;;;5026677;28;20017;-91
2023/10/27 03:08:36;;;;;;;3.83;1.75;;;10.80;99.90;;;;;;5038128;28;20030;-91
2023/10/27 03:11:02;;;;;;;4.93;1.30;;;10.80;99.90;;;;;;5038068;28;20555;-92
2023/10/27 03:13:30;;;;;;;4.03;1.77;;;10.80;99.90;;;;;;5037075;28;20060;-92
2023/10/27 03:16:00;;;;;;;3.65;1.50;;;10.80;99.90;;;;;;5037867;28;20029;-91
2023/10/27 03:18:26;;;;;;;5.47;1.65;;;10.70;99.90;;;;;;5028757;28;20128;-91
2023/10/27 03:20:59;;;;;;;7.47;1.63;;;10.70;99.90;;;;;;5037303;28;20029;-92
2023/10/27 03:23:26;;;;;;;4.32;1.42;;;10.80;99.90;;;;;;5036746;28;20105;-91
2023/10/27 03:25:52;;;;;;;7.28;2.40;;;10.70;99.90;;;;;;5037691;28;20518;-89
2023/10/27 03:28:18;;;;;;;5.78;2.45;;;10.70;99.90;;;;;;5037224;28;20365;-92
2023/10/27 03:30:45;;;;;;;4.30;1.65;;;10.70;99.90;;;;;;5036805;28;20029;-91
2023/10/27 03:33:11;;;;;;;2.88;1.23;;;10.70;99.90;;;;;;5037732;28;20151;-91
2023/10/27 03:35:42;;;;;;;3.17;1.48;;;10.60;99.90;;;;;;5037704;28;20049;-92
2023/10/27 03:38:09;;;;;;;4.38;1.90;;;10.60;99.90;;;;;;5036504;28;20025;-92
2023/10/27 03:40:39;;;;;;;6.35;2.00;;;10.60;99.90;;;;;;5036731;28;20041;-91
2023/10/27 03:43:04;;;;;;;7.32;2.15;;;10.60;99.90;;;;;;5022080;28;20396;-90
2023/10/27 03:45:30;;;;;;;6.80;2.10;;;10.60;99.90;;;;;;5026498;28;20021;-92
2023/10/27 03:47:56;;;;;;;3.10;1.83;;;10.70;99.90;;;;;;5035174;28;20029;-91
2023/10/27 03:50:21;;;;;;;4.55;1.98;;;10.60;99.90;;;;;;5028086;28;20034;-91
2023/10/27 03:52:47;;;;;;;5.18;1.60;;;10.70;99.90;;;;;;5034155;28;20272;-94
2023/10/27 03:55:13;;;;;;;7.72;2.13;;;10.60;99.90;;;;;;5028325;28;20096;-92
2023/10/27 03:57:41;;;;;;;7.32;2.17;;;10.60;99.90;;;;;;5033052;28;20038;-92
2023/10/27 04:00:07;;;;;;;;;;;10.70;99.90;;;;;;5027093;28;20480;-91
2023/10/27 04:02:36;;;;;;;5.43;1.92;;;10.60;99.90;;;;;;5033246;28;19909;-91
2023/10/27 04:05:04;;;;;;;2.90;1.40;;;10.70;99.90;;;;;;5033566;28;20022;-92
2023/10/27 04:07:29;;;;;;;6.22;2.03;;;10.70;99.90;;;;;;5029339;28;20026;-93
2023/10/27 04:09:55;;;;;;;8.05;1.98;;;10.70;99.90;;;;;;5051013;28;20168;-92
2023/10/27 04:12:21;;;;;;;5.18;1.55;;;10.70;99.90;;;;;;5036258;28;20097;-92
2023/10/27 04:14:48;;;;;;;6.43;2.17;;;10.70;99.90;;;;;;5027054;28;20041;-92
2023/10/27 04:17:14;;;;;;;6.20;2.10;;;10.70;99.90;;;;;;5034241;28;20100;-93
2023/10/27 04:19:43;;;;;;;6.55;1.98;;;10.60;99.90;;;;;;5035532;28;20113;-92
2023/10/27 04:22:10;;;;;;;5.63;1.63;;;10.70;99.90;;;;;;5028888;28;20026;-93
2023/10/27 04:24:36;;;;;;;5.88;2.40;;;10.70;99.90;;;;;;5030557;28;20042;-92
2023/10/27 04:27:02;;;;;;;3.28;1.63;;;10.70;99.90;;;;;;5025525;28;20061;-93
2023/10/27 04:29:28;;;;;;;4.63;1.48;;;10.70;99.90;;;;;;5031852;28;20493;-93
2023/10/27 04:31:53;;;;;;;4.32;1.23;;;10.70;99.90;;;;;;5036598;28;20503;-93
2023/10/27 04:34:20;;;;;;;3.88;2.20;;;10.70;99.90;;;;;;5039162;28;20030;-92
2023/10/27 04:36:45;;;;;;;4.60;1.55;;;10.70;99.90;;;;;;5030449;28;20022;-92
2023/10/27 04:39:11;;;;;;;5.50;1.55;;;10.70;99.90;;;;;;5031829;28;20022;-93
2023/10/27 04:41:37;;;;;;;5.10;1.88;;;10.60;99.90;;;;;;5028436;28;20043;-92
2023/10/27 04:44:03;;;;;;;7.07;1.60;;;10.70;99.90;;;;;;5035701;28;20021;-92
2023/10/27 04:46:28;;;;;;;5.00;1.92;;;10.70;99.90;;;;;;5033876;28;20618;-93
2023/10/27 04:48:57;;;;;;;4.20;2.08;;;10.70;99.90;;;;;;5024490;28;20038;-93
2023/10/27 04:51:24;;;;;;;6.80;1.50;;;10.60;99.90;;;;;;5031116;28;20029;-91
2023/10/27 04:53:49;;;;;;;6.65;2.47;;;10.60;99.90;;;;;;5050875;28;20442;-91
2023/10/27 04:56:18;;;;;;;4.25;2.15;;;10.60;99.90;;;;;;5031701;28;20021;-90
2023/10/27 04:58:44;;;;;;;6.40;1.98;;;10.60;99.90;;;;;;5037734;28;20557;-91
2023/10/27 05:01:11;;;;;;;4.10;2.15;;;10.60;99.90;;;;;;5038686;28;20024;-91
2023/10/27 05:03:37;;;;;;;8.82;2.42;;;10.60;99.90;;;;;;5020726;28;20108;-92
2023/10/27 05:06:10;;;;;;;5.55;1.45;;;10.50;99.90;;;;;;5029198;28;20033;-92
2023/10/27 05:08:36;;;;;;;4.18;1.48;;;10.60;99.90;;;;;;5028067;28;20034;-93
2023/10/27 05:11:01;;;;;;;4.15;1.55;;;10.50;99.90;;;;;;5033015;28;20030;-93
2023/10/27 05:13:27;;;;;;;3.05;0.93;;;10.50;99.90;;;;;;5037361;28;20128;-93
2023/10/27 05:15:56;;;;;;;2.30;1.60;;;10.50;99.90;;;;;;5040332;28;20053;-93
2023/10/27 05:18:21;;;;;;;2.38;2.00;;;10.40;99.90;;;;;;5040759;28;20040;-92
2023/10/27 05:20:48;;;;;;;2.85;1.63;;;10.40;99.90;;;;;;5029143;28;20018;-92
2023/10/27 05:23:13;;;;;;;2.28;1.23;;;10.40;99.90;;;;;;5039658;28;20048;-92
2023/10/27 05:25:40;;;;;;;4.05;1.48;;;10.40;99.90;;;;;;5039089;28;20022;-91
2023/10/27 05:28:06;;;;;;;2.75;0.93;;;10.40;99.90;;;;;;5038197;28;20624;-90
2023/10/27 05:30:34;;;;;;;2.15;1.48;;;10.30;99.90;;;;;;5037021;28;20037;-91
2023/10/27 05:33:00;;;;;;;2.88;1.38;;;10.30;99.90;;;;;;5035873;28;20488;-91
2023/10/27 05:35:26;;;;;;;1.58;0.98;;;10.40;99.90;;;;;;5045730;28;20033;-92
2023/10/27 05:37:52;;;;;;;3.83;1.65;;;10.40;99.90;;;;;;5036957;28;20329;-93
2023/10/27 05:40:18;;;;;;;1.48;1.35;;;10.30;99.90;;;;;;5051602;28;20515;-92
2023/10/27 05:42:44;;;;;;;2.03;1.05;;;10.40;99.90;;;;;;5032456;28;20096;-93
2023/10/27 05:45:13;;;;;;;3.90;1.00;;;10.40;99.90;;;;;;5026728;28;20112;-92
2023/10/27 05:47:40;;;;;;;2.90;1.65;;;10.40;99.90;;;;;;5025039;28;20018;-92
2023/10/27 05:50:07;;;;;;;3.78;1.80;;;10.40;99.90;;;;;;5030690;28;20045;-94
2023/10/27 05:52:33;;;;;;;3.90;2.30;;;10.40;99.90;;;;;;5029708;28;20192;-92
2023/10/27 05:54:59;;;;;;;3.30;1.50;;;10.40;99.90;;;;;;5031603;28;20715;-91
2023/10/27 05:57:24;;;;;;;2.80;1.90;;;10.40;99.90;;;;;;5027469;28;20029;-93
2023/10/27 05:59:50;;;;;;;3.20;1.95;;;10.40;99.90;;;;;;5029049;28;20056;-90
2023/10/27 06:02:15;;;;;;;5.78;1.70;;;10.40;99.90;;;;;;5030573;28;20036;-92
2023/10/27 06:04:42;;;;;;;4.82;2.50;;;10.50;99.90;;;;;;5028830;28;20021;-90
2023/10/27 06:07:07;;;;;;;3.55;2.10;;;10.50;99.90;;;;;;5029175;28;20526;-91
2023/10/27 06:09:34;;;;;;;4.35;1.98;;;10.50;99.90;;;;;;5042371;28;20033;-92
2023/10/27 06:12:00;;;;;;;3.80;1.85;;;10.50;99.90;;;;;;5034084;28;20037;-90
2023/10/27 06:14:25;;;;;;;4.55;2.40;;;10.50;99.90;;;;;;5030836;28;20034;-93
2023/10/27 06:16:51;;;;;;;4.25;2.17;;;10.50;99.90;;;;;;5031651;28;20159;-91
2023/10/27 06:19:17;;;;;;;4.70;2.58;;;10.50;99.90;;;;;;5046489;28;20506;-92
2023/10/27 06:21:43;;;;;;;4.10;1.70;;;10.60;99.90;;;;;;5032083;28;20022;-92
2023/10/27 06:24:10;;;;;;;2.58;1.35;;;10.60;99.90;;;;;;5028914;28;20029;-91
2023/10/27 06:26:36;;;;;;;2.13;1.42;;;10.70;99.90;;;;;;5047885;28;20115;-91
2023/10/27 06:29:01;;;;;;;4.07;1.92;;;10.70;99.90;;;;;;5036671;28;20074;-91
2023/10/27 06:31:27;;;;;;;2.95;1.60;;;10.70;99.90;;;;;;5044827;28;20029;-93
2023/10/27 06:33:54;;;;;;;2.03;1.35;;;10.70;99.90;;;;;;5025568;28;20061;-91
2023/10/27 06:36:19;;;;;;;1.98;1.30;;;10.80;99.90;;;;;;5029781;28;20084;-92
2023/10/27 06:38:45;;;;;;;2.17;1.17;;;10.80;99.90;;;;;;5028270;28;20029;-93
2023/10/27 06:41:11;;;;;;;1.50;0.90;;;10.80;99.90;;;;;;5029483;28;20060;-92
2023/10/27 06:43:36;;;;;;;2.08;1.20;;;10.80;99.90;;;;;;5032294;28;20025;-92
2023/10/27 06:46:02;;;;;;;2.80;0.95;;;10.90;99.90;;;;;;5027334;28;20033;-93
2023/10/27 06:48:28;;;;;;;2.22;1.15;;;10.90;99.90;;;;;;5045142;28;20029;-92
2023/10/27 06:50:53;;;;;;;3.17;0.90;;;10.90;99.90;;;;;;5031989;28;20025;-91
2023/10/27 06:53:19;;;;;;;2.42;0.80;;;10.90;99.90;;;;;;5028414;28;20095;-92
2023/10/27 06:55:45;;;;;;;1.70;1.38;;;10.90;99.90;;;;;;5028848;28;20406;-90
2023/10/27 06:58:10;;;;;;;1.75;1.02;;;10.90;99.90;;;;;;5029901;28;20105;-90
2023/10/27 07:00:36;;;;;;;1.90;1.33;;;10.90;99.90;;;;;;5030354;28;21340;-91
2023/10/27 07:03:01;;;;;;;1.88;0.82;;;10.90;99.90;;;;;;5044748;28;20044;-92
2023/10/27 07:05:29;;;;;;;2.88;1.15;;;10.90;99.90;;;;;;5027636;28;20025;-91
2023/10/27 07:07:54;;;;;;;2.72;1.35;;;10.90;99.90;;;;;;5036402;28;20040;-89
2023/10/27 07:10:20;;;;;;;1.85;1.17;;;10.90;99.90;;;;;;5028044;28;20120;-91
2023/10/27 07:12:47;;;;;;;2.25;1.33;;;10.90;99.90;;;;;;5043734;28;20033;-91
2023/10/27 07:15:15;;;;;;;2.58;1.83;;;10.90;99.90;;;;;;5028485;28;20034;-92
2023/10/27 07:17:41;;;;;;;3.97;2.90;;;11.00;99.90;;;;;;5028170;28;20037;-91
2023/10/27 07:20:07;;;;;;;2.60;1.30;;;10.90;99.90;;;;;;5031958;28;20025;-92
2023/10/27 07:22:35;;;;;;;4.30;1.88;;;10.90;99.90;;;;;;5031473;28;20364;-92
2023/10/27 07:25:01;;;;;;;1.83;1.20;;;10.90;99.90;;;;;;5027883;28;20143;-92
2023/10/27 07:27:26;;;;;;;3.05;1.30;;;10.90;99.90;;;;;;5043834;28;20072;-93
2023/10/27 07:29:52;;;;;;;2.22;1.70;;;10.90;99.90;;;;;;5029491;28;20555;-91
2023/10/27 07:32:18;;;;;;;1.83;1.02;;;11.00;99.90;;;;;;5027790;28;20087;-92
2023/10/27 07:34:43;;;;;;;1.90;1.60;;;11.00;99.90;;;;;;5041308;28;20938;-93
2023/10/27 07:37:09;;;;;;;3.40;1.25;;;11.00;99.90;;;;;;5027527;28;20030;-90
2023/10/27 07:39:38;;;;;;;2.40;1.52;;;11.00;99.90;;;;;;5030831;28;20033;-91
2023/10/27 07:42:04;;;;;;;3.00;1.15;;;11.10;99.90;;;;;;5027443;28;20029;-91
2023/10/27 07:44:30;;;;;;;1.48;1.02;;;11.10;99.90;;;;;;5039561;28;20092;-90
2023/10/27 07:46:55;;;;;;;1.80;0.85;;;11.10;99.90;;;;;;5027813;28;20117;-91
2023/10/27 07:49:21;;;;;;;3.20;1.30;;;11.10;99.90;;;;;;5027929;28;20037;-92
2023/10/27 07:51:48;;;;;;;1.25;0.60;;;11.10;99.90;;;;;;5030127;28;20049;-92
2023/10/27 07:54:14;;;;;;;1.48;1.05;;;11.00;99.90;;;;;;5028168;28;20053;-91
2023/10/27 07:56:39;;;;;;;1.10;0.88;;;11.00;99.90;;;;;;5028656;28;20018;-90
2023/10/27 07:59:05;;;;;;;1.75;0.85;;;11.00;99.90;;;;;;5030689;28;20044;-92
2023/10/27 08:01:31;;;;;;;1.10;1.00;;;11.00;99.90;;;;;;5031483;28;20034;-93
2023/10/27 08:03:56;;;;;;;2.20;1.65;;;11.00;99.90;;;;;;5030942;28;20243;-91
2023/10/27 08:06:23;;;;;;;0.75;0.65;;;11.00;99.90;;;;;;5033926;28;20056;-91
2023/10/27 08:08:48;;;;;;;1.13;0.73;;;11.00;99.90;;;;;;5027738;28;20033;-92
2023/10/27 08:11:17;;;;;;;4.78;1.35;;;11.00;99.90;;;;;;5029157;28;20037;-90
2023/10/27 08:13:43;;;;;;;2.40;1.42;;;11.10;99.90;;;;;;5026514;28;20037;-91
2023/10/27 08:16:09;;;;;;;1.13;1.02;;;11.00;99.90;;;;;;5030672;28;20010;-92
2023/10/27 08:18:36;;;;;;;0.60;0.60;;;11.00;99.90;;;;;;5027811;28;20025;-90
2023/10/27 08:21:02;;;;;;;1.33;1.23;;;11.00;99.90;;;;;;5027842;28;20038;-91
2023/10/27 08:23:28;;;;;;;1.95;0.93;;;11.10;99.90;;;;;;5029378;28;20036;-93
2023/10/27 08:25:54;;;;;;;1.88;1.08;;;11.10;99.90;;;;;;5024170;28;20510;-93
2023/10/27 08:28:20;;;;;;;2.40;0.80;;;11.10;99.90;;;;;;5024312;28;20610;-90
2023/10/27 08:30:47;;;;;;;0.90;0.55;;;11.10;99.90;;;;;;5026697;28;20036;-90
2023/10/27 08:33:14;;;;;;;0.70;0.45;;;11.10;99.90;;;;;;5022525;28;20113;-89
2023/10/27 08:35:40;;;;;;;0.93;0.63;;;11.20;99.90;;;;;;5023438;28;20488;-91
2023/10/27 08:38:05;;;;;;;1.20;1.20;;;11.20;99.90;;;;;;5025849;28;20075;-92
2023/10/27 08:40:31;;;;;;;0.85;0.85;;;11.30;99.90;;;;;;5027782;28;20033;-92
2023/10/27 08:42:57;;;;;;;0.80;0.75;;;11.30;99.90;;;;;;5028778;28;20803;-90
2023/10/27 08:45:23;;;;;;;2.47;1.27;;;11.40;99.90;;;;;;5026324;28;20025;-92
2023/10/27 08:47:50;;;;;;;1.98;0.80;;;11.40;99.90;;;;;;5030516;28;20017;-90
2023/10/27 08:50:16;;;;;;;1.23;0.98;;;11.50;99.90;;;;;;5034033;28;20041;-91
2023/10/27 08:52:42;;;;;;;0.73;0.65;;;11.40;99.90;;;;;;5048433;28;20078;-91
2023/10/27 08:55:10;;;;;;;1.80;0.60;;;11.40;99.90;;;;;;5048389;28;20025;-92
2023/10/27 08:57:39;;;;;;;1.95;1.85;;;11.50;99.90;;;;;;5048306;28;20068;-91
2023/10/27 09:00:08;;;;;;;0.85;0.70;;;11.50;99.90;;;;;;5031525;28;20061;-91
2023/10/27 09:02:38;;;;;;;1.98;0.52;;;11.60;99.90;;;;;;5036278;28;20075;-92
2023/10/27 09:05:06;;;;;;;3.28;0.93;;;11.60;99.90;;;;;;5032626;28;20033;-93
2023/10/27 09:07:33;;;;;;;1.17;0.82;;;11.70;99.90;;;;;;5048032;28;20026;-91
2023/10/27 09:10:03;;;;;;;2.67;0.82;;;11.70;99.90;;;;;;5031495;28;20036;-92
2023/10/27 09:12:30;;;;;;;0.82;0.68;;;11.70;99.90;;;;;;5037756;28;20029;-93
2023/10/27 09:15:05;;;;;;;2.42;0.90;;;11.70;99.90;;;;;;5047332;28;20025;-91
2023/10/27 09:17:50;;;;;;;2.58;1.00;;;11.60;99.90;;;;;;5055443;28;20025;-92
2023/10/27 09:20:16;;;;;;;2.38;1.45;;;11.60;99.90;;;;;;5039181;28;20131;-92
2023/10/27 09:23:01;;;;;;;2.03;1.10;;;11.60;99.90;;;;;;5020013;28;20033;-92
2023/10/27 09:25:34;;;;;;;2.50;0.98;;;11.50;99.90;;;;;;5029892;28;20080;-90
2023/10/27 09:28:02;;;;;;;1.60;1.08;;;11.60;99.90;;;;;;5029181;28;20022;-93
2023/10/27 09:30:33;;;;;;;2.20;0.90;;;11.60;99.90;;;;;;5051512;28;20124;-92
2023/10/27 09:33:26;;;;;;;2.50;1.65;;;11.80;99.90;;;;;;5027583;28;20033;-91
2023/10/27 09:35:52;;;;;;;1.65;1.10;;;11.90;99.90;;;;;;5032301;28;20057;-90
2023/10/27 09:38:20;;;;;;;1.60;1.15;;;11.80;99.90;;;;;;5022760;28;20574;-93
2023/10/27 09:40:46;;;;;;;3.75;0.82;;;11.90;99.90;;;;;;5038865;28;20052;-91
2023/10/27 09:43:25;;;;;;;1.33;1.23;;;11.80;99.90;;;;;;5038168;28;20032;-89
2023/10/27 09:46:04;;;;;;;2.20;1.63;;;11.80;99.90;;;;;;5049886;28;20117;-92
2023/10/27 09:48:30;;;;;;;2.10;0.82;;;11.80;99.90;;;;;;5046794;28;20029;-92
2023/10/27 09:51:07;;;;;;;5.10;1.45;;;11.80;99.90;;;;;;5039435;28;20049;-93
2023/10/27 09:53:33;;;;;;;2.03;1.08;;;11.80;99.90;;;;;;5055803;28;20033;-92
2023/10/27 09:56:00;;;;;;;1.75;1.13;;;12.00;99.90;;;;;;5046547;28;20025;-95
2023/10/27 09:58:29;;;;;;;1.55;0.93;;;12.20;99.90;;;;;;5050045;28;20025;-93
2023/10/27 10:00:59;;;;;;;1.65;0.90;;;12.50;99.90;;;;;;5046501;28;20412;-92
2023/10/27 10:03:27;;;;;;;3.22;1.38;;;12.80;99.90;;;;;;5032324;28;20101;-91
2023/10/27 10:06:18;;;;;;;1.67;1.33;;;13.00;99.90;;;;;;5032926;28;20037;-92
2023/10/27 10:09:14;;;;;;;1.63;0.93;;;13.20;99.90;;;;;;5031669;28;20060;-92
2023/10/27 10:11:53;;;;;;;2.30;0.80;;;13.40;99.90;;;;;;5031899;28;20032;-91
2023/10/27 10:14:37;;;;;;;1.85;0.95;;;13.40;99.90;;;;;;5020578;28;20022;-91
2023/10/27 10:17:04;;;;;;;4.85;1.08;;;13.50;99.90;;;;;;5035102;28;20205;-92
2023/10/27 10:19:50;;;;;;;1.75;1.15;;;13.60;99.90;;;;;;5037079;28;20068;-91
2023/10/27 10:22:38;;;;;;;3.83;1.10;;;13.40;99.90;;;;;;5038076;28;20017;-90
2023/10/27 10:25:18;;;;;;;1.77;1.10;;;13.30;99.90;;;;;;5036619;28;20487;-91
2023/10/27 10:28:09;;;;;;;3.90;1.58;;;13.40;99.90;;;;;;5036531;28;20049;-92
2023/10/27 10:30:38;;;;;;;5.88;2.72;;;13.40;99.90;;;;;;5037532;28;20037;-92
2023/10/27 10:33:24;;;;;;;4.57;1.23;;;13.50;99.90;;;;;;5038591;28;20021;-91
2023/10/27 10:35:52;;;;;;;3.80;1.42;;;13.60;99.90;;;;;;5028321;28;20395;-93
2023/10/27 10:38:23;;;;;;;2.90;1.27;;;13.70;99.90;;;;;;5038849;28;20086;-92
2023/10/27 10:40:50;;;;;;;3.50;0.80;;;14.10;99.90;;;;;;5038522;28;20017;-92
2023/10/27 10:43:19;;;;;;;3.63;1.52;;;14.20;99.90;;;;;;5053853;28;20037;-92
2023/10/27 10:45:59;;;;;;;19.83;11.45;;;14.00;99.90;;;;;;5039127;28;20593;-91
2023/10/27 10:48:27;;;;;;;5.13;1.08;;;13.90;99.90;;;;;;5038445;28;20107;-91
2023/10/27 10:51:00;;;;;;;4.03;1.20;;;13.70;99.90;;;;;;5036416;28;20041;-92
2023/10/27 10:53:26;;;;;;;2.72;1.42;;;13.80;99.90;;;;;;5050257;28;20076;-92
2023/10/27 10:56:00;;;;;;;5.65;2.95;;;13.60;99.90;;;;;;5034822;28;20037;-91
2023/10/27 10:58:31;;;;;;;2.25;1.30;;;13.60;99.90;;;;;;5033147;28;20029;-91
2023/10/27 11:00:58;;;;;;;4.13;1.08;;;13.60;99.90;;;;;;5036478;28;20025;-92
2023/10/27 11:03:25;;;;;;;4.40;1.33;;;13.60;99.90;;;;;;5038553;28;20049;-92
2023/10/27 11:05:54;;;;;;;4.00;1.40;;;13.50;99.90;;;;;;5038976;28;20025;-90
2023/10/27 11:08:25;;;;;;;5.88;1.55;;;13.40;99.90;;;;;;5039460;28;20053;-92
2023/10/27 11:11:17;;;;;;;4.55;1.52;;;13.30;99.90;;;;;;5039982;28;20104;-92
2023/10/27 11:13:50;;;;;;;3.38;1.70;;;13.10;99.90;;;;;;5031160;28;20108;-92
2023/10/27 11:16:18;;;;;;;2.90;1.13;;;12.90;99.90;;;;;;5027699;28;20142;-92
2023/10/27 11:18:52;;;;;;;2.60;1.08;;;12.60;99.90;;;;;;5018886;28;20047;-91
2023/10/27 11:21:19;;;;;;;6.45;1.65;;;12.40;99.90;;;;;;5035852;28;20025;-91
2023/10/27 11:23:46;;;;;;;4.65;1.63;;;12.20;99.90;;;;;;5035040;28;20128;-88
2023/10/27 11:26:13;;;;;;;3.80;1.88;;;12.10;99.90;;;;;;5028242;28;20026;-90
2023/10/27 11:28:43;;;;;;;2.92;1.10;;;12.00;99.90;;;;;;5034822;28;20024;-91
2023/10/27 11:31:22;;;;;;;3.00;0.73;;;11.90;99.90;;;;;;5035167;28;20518;-90
2023/10/27 11:34:02;;;;;;;8.07;7.05;;;11.90;99.90;;;;;;5021669;28;20079;-90
2023/10/27 11:36:38;;;;;;;4.75;1.90;;;11.90;99.90;;;;;;5035107;28;20086;-92
2023/10/27 11:39:16;;;;;;;7.07;4.50;;;11.90;99.90;;;;;;5029523;28;20044;-92
2023/10/27 11:41:48;;;;;;;6.28;2.08;;;11.90;99.90;;;;;;5031897;28;20060;-94
2023/10/27 11:44:14;;;;;;;5.38;1.85;;;12.00;99.90;;;;;;5039967;28;20503;-94
2023/10/27 11:46:47;;;;;;;2.25;1.92;;;12.00;99.90;;;;;;5039527;28;20013;-93
2023/10/27 11:49:13;;;;;;;8.10;2.90;;;12.10;99.90;;;;;;5038781;28;20031;-93
2023/10/27 11:51:41;;;;;;;3.90;1.77;;;12.20;99.90;;;;;;5039330;28;20025;-93
2023/10/27 11:54:07;;;;;;;7.68;2.38;;;12.30;99.90;;;;;;5033528;28;20025;-94
2023/10/27 11:56:33;;;;;;;4.95;1.83;;;12.30;99.90;;;;;;5038994;28;20412;-95
2023/10/27 11:58:58;;;;;;;4.05;2.38;;;12.70;99.90;;;;;;5038830;28;20028;-93
2023/10/27 12:01:24;;;;;;;1.48;1.13;;;13.30;99.90;;;;;;5030350;28;20022;-94
2023/10/27 12:03:50;;;;;;;2.25;0.73;;;14.10;99.90;;;;;;5045704;28;20033;-92
2023/10/27 12:06:15;;;;;;;2.85;1.45;;;14.90;99.90;;;;;;5039682;28;20067;-92
2023/10/27 12:08:41;;;;;;;2.20;1.88;;;15.20;99.90;;;;;;5039050;28;20021;-94
2023/10/27 12:11:07;;;;;;;4.93;1.50;;;15.30;99.90;;;;;;5030639;28;20033;-93
2023/10/27 12:13:32;;;;;;;2.28;0.77;;;15.60;95.40;;;;;;5030910;28;20029;-94
2023/10/27 12:15:58;;;;;;;2.25;0.73;;;15.70;92.90;;;;;;5039862;28;20053;-93
2023/10/27 12:18:24;;;;;;;2.20;0.77;;;15.30;92.60;;;;;;5060342;28;20077;-93
2023/10/27 12:20:50;;;;;;;2.72;0.63;;;14.60;98.90;;;;;;5044499;28;20034;-94
2023/10/27 12:23:18;;;;;;;2.70;0.80;;;14.60;99.50;;;;;;5041633;28;20464;-93
2023/10/27 12:25:43;;;;;;;;;;;14.50;96.90;;;;;;5050726;28;20025;-92
2023/10/27 12:28:09;;;;;;;3.90;1.02;;;15.00;95.30;;;;;;5043133;28;19912;-92
2023/10/27 12:30:36;;;;;;;4.03;0.63;;;15.60;94.10;;;;;;5043003;28;20057;-92
2023/10/27 12:33:09;;;;;;;2.95;0.93;;;15.80;95.00;;;;;;5060699;28;20025;-93
2023/10/27 12:35:37;;;;;;;1.73;0.70;;;15.70;89.60;;;;;;5063224;28;20031;-94
2023/10/27 12:38:04;;;;;;;;;;;15.70;89.10;;;;;;5039583;28;20033;-94
2023/10/27 12:40:31;;;;;;;2.35;0.70;;;16.30;86.80;;;;;;5046154;28;19915;-93
2023/10/27 12:42:56;;;;;;;1.55;0.90;;;17.00;87.10;;;;;;5045206;28;20105;-95
2023/10/27 12:45:23;;;;;;;1.75;0.75;;;17.10;80.40;;;;;;5043580;28;20045;-91
2023/10/27 12:47:50;;;;;;;3.65;1.17;;;17.10;81.60;;;;;;5034864;28;20017;-93
2023/10/27 12:50:16;;;;;;;2.55;0.70;;;17.10;81.40;;;;;;5043232;28;20026;-94